Time;durP1;ratioP1;P1;durP2;ratioP2;P2;SDS_P1;SDS_P2;PMS_P1;PMS_P2;Temp;Humidity;BMP_temperature;BMP_pressure;BME280_temperature;BME280_humidity;BME280_pressure;Samples;Min_cycle;Max_cycle;Signal;HPM_P1;HPM_P2
2021/04/12 00:00:39;;;;;;;65.95;35.38;;;;;;;3.13;67.75;100467.66;1777348;80;21145;-63
2021/04/12 00:03:21;;;;;;;63.80;34.33;;;;;;;3.00;68.03;100464.45;1761233;81;21645;-63
2021/04/12 00:06:11;;;;;;;61.05;33.40;;;;;;;2.98;67.54;100466.50;1731918;81;21172;-62
2021/04/12 00:09:06;;;;;;;62.55;34.23;;;;;;;2.97;65.99;100469.42;1730750;81;21299;-62
2021/04/12 00:11:48;;;;;;;66.22;35.38;;;;;;;2.84;64.93;100466.68;1769965;80;21169;-63
2021/04/12 00:14:32;;;;;;;67.50;35.13;;;;;;;2.74;64.98;100468.42;1786259;80;21149;-63
2021/04/12 00:17:04;;;;;;;63.87;33.53;;;;;;;2.70;64.97;100466.34;1759749;80;21312;-63
2021/04/12 00:19:58;;;;;;;59.95;33.38;;;;;;;2.68;65.29;100464.37;1748640;81;21133;-63
2021/04/12 00:22:38;;;;;;;56.58;30.25;;;;;;;2.65;65.27;100462.94;1750848;81;21157;-64
2021/04/12 00:25:13;;;;;;;55.10;29.55;;;;;;;2.59;64.53;100458.34;1774540;80;21590;-63
2021/04/12 00:29:18;;;;;;;56.90;31.20;;;;;;;2.68;63.30;100464.37;1807897;79;22895;-63
2021/04/12 00:31:50;;;;;;;;;;;;;;;2.63;63.22;100464.15;1776312;78;21159;-63
2021/04/12 00:34:32;;;;;;;65.83;33.05;;;;;;;2.62;63.34;100465.20;1759500;81;20179;-61
2021/04/12 00:37:26;;;;;;;53.80;35.50;;;;;;;2.57;63.70;100459.59;1766223;79;38706;-62
2021/04/12 00:40:18;;;;;;;53.05;31.07;;;;;;;2.73;63.01;100465.95;1716730;82;21172;-62
2021/04/12 00:43:03;;;;;;;56.10;31.25;;;;;;;2.81;62.32;100453.14;1755367;80;21201;-62
2021/04/12 00:46:15;;;;;;;49.08;29.18;;;;;;;2.67;63.00;100455.48;1755809;82;21160;-62
2021/04/12 00:49:01;;;;;;;53.28;29.60;;;;;;;2.57;63.79;100450.19;1755994;80;21606;-62
2021/04/12 00:51:50;;;;;;;49.85;28.38;;;;;;;2.42;63.75;100453.86;1697597;82;21176;-62
2021/04/12 00:54:59;;;;;;;55.12;29.95;;;;;;;2.38;62.91;100448.57;1729388;82;21189;-62
2021/04/12 00:58:13;;;;;;;51.28;28.17;;;;;;;2.39;62.51;100448.89;1754204;82;21129;-62
2021/04/12 01:01:13;;;;;;;51.65;27.70;;;;;;;2.42;62.07;100447.66;1702967;82;21168;-62
2021/04/12 01:04:06;;;;;;;51.25;27.65;;;;;;;2.38;62.23;100445.05;1755974;82;21183;-62
2021/04/12 01:07:01;;;;;;;52.93;28.92;;;;;;;2.36;62.66;100447.13;1753580;82;21196;-62
2021/04/12 01:10:14;;;;;;;57.80;30.15;;;;;;;2.30;63.42;100444.70;1755737;82;21160;-61
2021/04/12 01:13:24;;;;;;;51.18;29.30;;;;;;;2.23;63.93;100447.88;1755795;80;21184;-63
2021/04/12 01:16:15;;;;;;;51.25;29.20;;;;;;;2.11;64.27;100443.30;1750899;82;21227;-62
2021/04/12 01:19:23;;;;;;;51.02;28.57;;;;;;;2.03;64.03;100437.58;1755875;82;21305;-62
2021/04/12 01:22:11;;;;;;;52.73;28.83;;;;;;;2.00;63.77;100436.64;1755928;82;21128;-62
2021/04/12 01:25:01;;;;;;;;;;;;;;;1.98;63.92;100433.33;1756443;82;21321;-62
2021/04/12 01:28:10;;;;;;;52.70;28.77;;;;;;;1.90;64.45;100427.61;1751912;82;20196;-62
2021/04/12 01:31:14;;;;;;;48.80;29.60;;;;;;;1.78;65.14;100427.84;1754119;82;21180;-62
2021/04/12 01:34:19;;;;;;;55.75;33.25;;;;;;;1.75;65.53;100415.33;1728143;82;21626;-61
2021/04/12 01:37:15;;;;;;;55.40;32.38;;;;;;;1.78;65.76;100412.25;1691966;83;21184;-62
2021/04/12 01:40:35;;;;;;;44.93;27.42;;;;;;;1.90;65.63;100409.33;1728428;82;21136;-62
2021/04/12 01:43:20;;;;;;;56.90;31.93;;;;;;;1.88;65.67;100413.54;1732837;82;21201;-62
2021/04/12 01:45:56;;;;;;;56.40;31.85;;;;;;;1.82;65.76;100420.22;1755989;82;21210;-62
2021/04/12 01:49:17;;;;;;;63.33;34.78;;;;;;;1.73;66.42;100407.50;1737351;80;21198;-62
2021/04/12 01:52:24;;;;;;;59.20;34.67;;;;;;;1.67;66.85;100407.43;1748472;82;21148;-62
2021/04/12 01:55:24;;;;;;;55.10;31.40;;;;;;;1.56;67.49;100410.70;1753269;82;21222;-61
2021/04/12 01:58:12;;;;;;;61.73;33.75;;;;;;;1.54;67.75;100405.52;1755370;82;21164;-62
2021/04/12 02:00:57;;;;;;;;;;;;;;;1.50;68.10;100396.20;1757739;82;21116;-62
2021/04/12 02:03:47;;;;;;;54.60;29.92;;;;;;;1.49;68.54;100391.84;1753417;82;20275;-62
2021/04/12 02:06:24;;;;;;;59.73;33.53;;;;;;;1.39;69.42;100388.69;1689397;84;21671;-61
2021/04/12 02:08:56;;;;;;;;;;;;;;;1.35;69.80;100384.23;1671076;86;21316;-61
2021/04/12 02:11:34;;;;;;;57.62;33.05;;;;;;;1.31;69.68;100376.25;1700705;82;20185;-60
2021/04/12 02:14:41;;;;;;;56.92;34.15;;;;;;;1.21;70.17;100374.44;1688618;84;21656;-61
2021/04/12 02:17:50;;;;;;;62.78;37.25;;;;;;;1.10;70.51;100361.56;1692301;85;21154;-61
2021/04/12 02:20:45;;;;;;;69.60;37.40;;;;;;;1.14;70.88;100374.06;1693873;85;21154;-61
2021/04/12 02:23:39;;;;;;;65.25;35.50;;;;;;;1.10;71.08;100372.83;1693921;85;21177;-61
2021/04/12 02:26:44;;;;;;;70.03;39.73;;;;;;;1.19;70.95;100374.33;1692245;84;21192;-61
2021/04/12 02:29:38;;;;;;;71.82;41.23;;;;;;;1.23;70.75;100375.09;1693913;85;21149;-61
2021/04/12 02:32:18;;;;;;;70.37;38.33;;;;;;;1.17;70.78;100376.38;1680679;85;21303;-61
2021/04/12 02:35:15;;;;;;;61.30;36.25;;;;;;;1.16;70.71;100374.21;1685730;85;21511;-61
2021/04/12 02:38:18;;;;;;;71.35;41.13;;;;;;;1.18;70.61;100373.48;1673488;85;21181;-61
2021/04/12 02:41:07;;;;;;;78.45;43.35;;;;;;;1.16;71.03;100372.87;1683661;85;21201;-60
2021/04/12 02:44:01;;;;;;;81.12;43.02;;;;;;;1.16;71.41;100373.38;1679376;85;21164;-61
2021/04/12 02:46:57;;;;;;;74.25;40.10;;;;;;;1.06;71.98;100375.07;1668458;85;21156;-61
2021/04/12 02:49:50;;;;;;;76.22;42.00;;;;;;;1.07;72.01;100373.19;1691882;85;21298;-61
2021/04/12 02:53:11;;;;;;;78.25;40.78;;;;;;;1.09;71.87;100368.48;1693872;83;21709;-61
2021/04/12 02:56:21;;;;;;;76.67;41.40;;;;;;;0.98;72.27;100361.29;1693924;85;21169;-60
2021/04/12 02:59:18;;;;;;;72.20;40.52;;;;;;;0.94;72.57;100364.55;1693852;85;21161;-61
2021/04/12 03:02:06;;;;;;;78.60;41.88;;;;;;;0.91;72.81;100365.77;1694039;83;21184;-61
2021/04/12 03:04:56;;;;;;;70.50;39.58;;;;;;;0.90;73.14;100360.09;1691212;85;21564;-60
2021/04/12 03:07:45;;;;;;;72.25;39.45;;;;;;;0.93;73.28;100353.50;1684027;85;21709;-60
2021/04/12 03:10:25;;;;;;;75.83;43.75;;;;;;;0.99;73.26;100360.78;1688494;85;21176;-61
2021/04/12 03:13:04;;;;;;;78.80;40.05;;;;;;;0.87;73.81;100360.48;1664888;85;21608;-60
2021/04/12 03:15:53;;;;;;;73.22;40.55;;;;;;;0.82;74.13;100355.36;1693746;85;21211;-61
2021/04/12 03:18:48;;;;;;;;;;;;;;;0.84;74.13;100347.47;1696383;85;21192;-61
2021/04/12 03:21:42;;;;;;;78.50;42.10;;;;;;;0.74;74.72;100348.31;1653916;85;20177;-61
2021/04/12 03:25:01;;;;;;;85.22;45.65;;;;;;;0.70;74.99;100349.72;1691968;85;21121;-61
2021/04/12 03:27:46;;;;;;;81.70;44.38;;;;;;;0.72;74.49;100350.84;1693678;83;21198;-60
2021/04/12 03:30:39;;;;;;;72.90;40.75;;;;;;;0.68;74.34;100341.03;1693983;85;21564;-60
2021/04/12 03:33:43;;;;;;;80.22;43.48;;;;;;;0.73;74.24;100342.63;1706154;83;21544;-60
2021/04/12 03:36:37;;;;;;;79.00;42.17;;;;;;;0.69;73.43;100303.01;1835805;77;22476;-59
2021/04/12 03:39:17;;;;;;;78.95;44.38;;;;;;;0.92;73.04;100341.14;1833799;77;21117;-59
2021/04/12 03:42:16;;;;;;;78.55;42.83;;;;;;;0.97;72.57;100336.00;1841077;77;21297;-59
2021/04/12 03:45:04;;;;;;;75.50;42.13;;;;;;;1.02;72.46;100336.77;1819385;78;21169;-59
2021/04/12 03:47:52;;;;;;;75.05;43.10;;;;;;;1.02;72.64;100333.58;1836378;77;21133;-59
2021/04/12 03:50:31;;;;;;;73.67;43.00;;;;;;;1.06;72.61;100340.22;1759824;80;21178;-60
2021/04/12 03:53:14;;;;;;;78.30;43.68;;;;;;;1.09;72.51;100338.48;1769042;80;21187;-60
2021/04/12 03:55:53;;;;;;;73.42;42.67;;;;;;;1.05;72.75;100342.56;1796353;78;21176;-60
2021/04/12 03:59:00;;;;;;;76.47;41.15;;;;;;;1.08;72.63;100335.47;1821252;78;21187;-60
2021/04/12 04:01:52;;;;;;;91.30;44.38;;;;;;;1.14;71.98;100340.04;1844447;77;21113;-60
2021/04/12 04:04:37;;;;;;;81.82;43.73;;;;;;;1.23;71.38;100340.22;1785709;80;21216;-60
2021/04/12 04:07:42;;;;;;;72.32;42.03;;;;;;;1.33;70.58;100335.84;1754286;79;21749;-60
2021/04/12 04:10:47;;;;;;;76.17;43.35;;;;;;;1.45;69.68;100337.75;1739039;81;21605;-60
2021/04/12 04:13:44;;;;;;;78.12;43.40;;;;;;;1.62;69.02;100328.87;1710627;82;21218;-60
2021/04/12 04:16:29;;;;;;;62.93;36.48;;;;;;;1.73;69.08;100328.82;1754674;79;21164;-60
2021/04/12 04:19:33;;;;;;;75.08;43.15;;;;;;;1.82;69.00;100330.29;1733218;80;21156;-61
2021/04/12 04:22:31;;;;;;;70.60;41.70;;;;;;;1.87;69.23;100330.53;1659848;83;21241;-60
2021/04/12 04:25:16;;;;;;;76.97;41.50;;;;;;;1.86;69.31;100326.18;1742339;81;21302;-60
2021/04/12 04:27:58;;;;;;;72.05;42.73;;;;;;;1.84;69.72;100326.91;1733560;81;21160;-60
2021/04/12 04:30:41;;;;;;;72.17;40.85;;;;;;;1.82;70.42;100328.44;1782890;80;21188;-60
2021/04/12 04:33:41;;;;;;;72.75;41.00;;;;;;;1.89;70.53;100326.60;1786821;80;21280;-60
2021/04/12 04:36:56;;;;;;;73.05;42.03;;;;;;;1.84;71.14;100333.62;1801853;79;21192;-60
2021/04/12 04:39:39;;;;;;;74.40;42.30;;;;;;;1.82;71.40;100334.31;1781317;80;21532;-60
2021/04/12 04:42:46;;;;;;;74.40;40.43;;;;;;;1.91;71.59;100337.16;1799659;79;21165;-60
2021/04/12 04:45:19;;;;;;;72.87;39.95;;;;;;;2.17;71.26;100334.53;1753260;80;21164;-60
2021/04/12 04:48:25;;;;;;;73.87;42.20;;;;;;;2.30;71.40;100335.90;1802134;77;21158;-60
2021/04/12 04:51:32;;;;;;;68.92;42.15;;;;;;;2.37;71.16;100329.22;1836902;77;21750;-60
2021/04/12 04:54:34;;;;;;;71.85;41.70;;;;;;;2.44;70.16;100328.17;1853817;77;21086;-60
2021/04/12 04:57:31;;;;;;;83.33;44.50;;;;;;;2.56;69.00;100322.19;1792791;77;21175;-60
2021/04/12 05:00:16;;;;;;;76.57;45.00;;;;;;;2.66;68.03;100319.95;1849359;77;21750;-60
2021/04/12 05:03:13;;;;;;;74.15;44.10;;;;;;;2.78;67.67;100320.97;1854081;77;21693;-60
2021/04/12 05:06:03;;;;;;;70.30;40.85;;;;;;;3.02;66.73;100320.33;1782154;80;21150;-60
2021/04/12 05:08:50;;;;;;;70.97;40.30;;;;;;;3.28;65.94;100310.88;1737907;82;21198;-60
2021/04/12 05:11:42;;;;;;;67.10;39.58;;;;;;;3.53;65.45;100311.53;1673074;82;21192;-61
2021/04/12 05:14:21;;;;;;;73.75;44.05;;;;;;;3.81;64.70;100307.49;1767310;79;21136;-61
2021/04/12 05:17:29;;;;;;;74.30;43.20;;;;;;;4.10;64.15;100307.45;1799827;80;21622;-59
2021/04/12 05:20:26;;;;;;;68.20;43.00;;;;;;;4.32;63.01;100306.05;1799998;80;21306;-62
2021/04/12 05:23:27;;;;;;;66.72;39.05;;;;;;;4.60;61.56;100292.20;1763002;80;21206;-61
2021/04/12 05:26:41;;;;;;;70.50;42.08;;;;;;;4.91;60.22;100296.17;1771754;81;21181;-61
2021/04/12 05:29:35;;;;;;;61.05;38.48;;;;;;;5.23;58.42;100290.16;1741642;82;21577;-62
2021/04/12 05:32:45;;;;;;;65.45;40.33;;;;;;;5.59;57.85;100293.39;1722951;79;21184;-61
2021/04/12 05:35:50;;;;;;;61.92;39.35;;;;;;;5.97;56.99;100285.88;1744455;80;21340;-61
2021/04/12 05:38:52;;;;;;;63.10;40.35;;;;;;;6.38;57.21;100290.99;1846018;77;21613;-62
2021/04/12 05:41:43;;;;;;;75.28;46.20;;;;;;;6.71;56.97;100289.13;1820882;78;21634;-61
2021/04/12 05:44:23;;;;;;;68.83;42.75;;;;;;;7.03;56.53;100279.63;1785447;80;21171;-61
2021/04/12 05:47:08;;;;;;;73.12;46.15;;;;;;;7.37;55.95;100280.66;1797201;79;21142;-61
2021/04/12 05:49:53;;;;;;;67.20;42.20;;;;;;;7.67;55.87;100284.03;1817765;79;21501;-60
2021/04/12 05:53:13;;;;;;;63.92;41.23;;;;;;;7.95;54.63;100275.10;1817435;79;21182;-62
2021/04/12 05:56:10;;;;;;;57.88;38.53;;;;;;;8.21;54.16;100274.53;1748301;82;21199;-60
2021/04/12 05:59:01;;;;;;;68.45;42.08;;;;;;;8.53;53.10;100271.32;1732916;82;21670;-61
2021/04/12 06:01:58;;;;;;;61.42;40.50;;;;;;;8.79;52.80;100270.13;1796224;79;21297;-61
2021/04/12 06:04:55;;;;;;;66.50;42.38;;;;;;;9.08;51.80;100274.09;1786145;79;21135;-60
2021/04/12 06:07:47;;;;;;;59.80;38.88;;;;;;;9.44;51.86;100273.54;1806360;77;21716;-62
2021/04/12 06:10:48;;;;;;;55.05;36.83;;;;;;;9.81;47.30;100271.03;1814587;77;21128;-61
2021/04/12 06:13:54;;;;;;;54.00;35.13;;;;;;;10.07;46.83;100270.23;1756396;80;21157;-63
2021/04/12 06:16:42;;;;;;;50.98;34.23;;;;;;;10.34;45.65;100271.11;1841946;77;21149;-63
2021/04/12 06:19:39;;;;;;;56.20;34.98;;;;;;;10.60;46.64;100272.69;1829620;78;21133;-62
2021/04/12 06:22:13;;;;;;;44.85;30.68;;;;;;;10.89;46.02;100268.05;1846119;78;21165;-61
2021/04/12 06:25:04;;;;;;;45.48;31.52;;;;;;;11.21;43.88;100267.99;1718580;83;21179;-62
2021/04/12 06:28:10;;;;;;;37.85;24.95;;;;;;;11.43;41.71;100261.86;1785431;80;21211;-62
2021/04/12 06:31:23;;;;;;;36.75;24.10;;;;;;;11.59;37.87;100263.28;1721014;80;21186;-64
2021/04/12 06:34:36;;;;;;;35.43;23.98;;;;;;;11.60;39.10;100269.84;1800082;77;21121;-62
2021/04/12 06:37:22;;;;;;;39.67;24.65;;;;;;;11.77;37.66;100257.40;1744789;80;21638;-60
2021/04/12 06:40:18;;;;;;;40.85;27.75;;;;;;;11.88;38.21;100256.35;1758595;81;21613;-62
2021/04/12 06:43:23;;;;;;;44.55;28.35;;;;;;;11.88;37.11;100259.08;1729567;82;21221;-64
2021/04/12 06:46:22;;;;;;;39.65;26.40;;;;;;;11.81;37.21;100255.78;1744701;81;21172;-61
2021/04/12 06:49:14;;;;;;;41.30;28.38;;;;;;;11.82;37.92;100251.98;1784817;80;21167;-64
2021/04/12 06:52:22;;;;;;;43.85;28.00;;;;;;;11.82;37.23;100251.98;1784255;80;21135;-64
2021/04/12 06:55:18;;;;;;;;;;;;;;;11.73;37.35;100256.28;1776830;80;21186;-60
2021/04/12 06:58:17;;;;;;;42.78;27.77;;;;;;;11.69;38.66;100254.60;1784890;80;20159;-63
2021/04/12 07:01:23;;;;;;;40.73;27.32;;;;;;;11.73;38.62;100243.47;1784813;80;21174;-62
2021/04/12 07:04:36;;;;;;;39.48;25.82;;;;;;;11.91;37.14;100239.44;1775799;80;21141;-62
2021/04/12 07:07:46;;;;;;;41.15;24.67;;;;;;;12.03;37.45;100238.67;1803159;79;21161;-62
2021/04/12 07:10:59;;;;;;;35.78;22.85;;;;;;;12.12;37.69;100239.77;1759441;80;21152;-61
2021/04/12 07:13:58;;;;;;;34.60;22.95;;;;;;;12.22;36.88;100238.99;1723301;83;21200;-64
2021/04/12 07:17:07;;;;;;;31.40;21.73;;;;;;;12.38;37.73;100231.91;1645095;86;21234;-62
2021/04/12 07:20:12;;;;;;;31.85;21.70;;;;;;;12.69;36.21;100230.55;1657123;86;21219;-62
2021/04/12 07:23:07;;;;;;;32.78;21.48;;;;;;;12.90;36.29;100222.61;1643869;87;21222;-63
2021/04/12 07:26:22;;;;;;;35.33;22.30;;;;;;;13.12;35.66;100224.52;1666019;86;21171;-60
2021/04/12 07:29:31;;;;;;;31.65;22.45;;;;;;;13.24;35.62;100220.13;1640594;87;21176;-61
2021/04/12 07:32:29;;;;;;;31.48;20.17;;;;;;;13.44;36.48;100216.78;1641170;87;21779;-59
2021/04/12 07:35:17;;;;;;;34.18;22.32;;;;;;;13.70;35.13;100214.77;1659982;86;21232;-61
2021/04/12 07:38:19;;;;;;;;;;;;;;;13.86;34.80;100208.11;1661957;84;21196;-59
2021/04/12 07:41:36;;;;;;;26.33;19.05;;;;;;;14.08;34.01;100209.08;1669798;84;20181;-60
2021/04/12 07:44:42;;;;;;;28.35;19.40;;;;;;;14.22;32.75;100211.45;1665666;85;21201;-60
2021/04/12 07:47:48;;;;;;;23.83;18.17;;;;;;;14.10;32.56;100206.08;1655504;84;21224;-60
2021/04/12 07:50:45;;;;;;;22.80;15.30;;;;;;;14.13;33.25;100207.70;1669527;86;21168;-60
2021/04/12 07:53:54;;;;;;;26.40;16.70;;;;;;;14.36;32.97;100200.70;1669868;86;21332;-59
2021/04/12 07:56:50;;;;;;;23.18;16.40;;;;;;;14.65;32.54;100191.98;1642175;87;21301;-60
2021/04/12 07:59:59;;;;;;;22.98;16.32;;;;;;;14.80;31.98;100196.52;1642521;87;21209;-62
2021/04/12 08:03:11;;;;;;;24.20;16.70;;;;;;;14.79;31.25;100188.02;1662712;86;21397;-60
2021/04/12 08:06:28;;;;;;;26.62;16.25;;;;;;;14.73;31.18;100189.18;1640137;87;21243;-60
2021/04/12 08:09:27;;;;;;;23.90;15.48;;;;;;;14.87;32.31;100189.59;1667438;86;21182;-59
2021/04/12 08:12:26;;;;;;;20.25;13.72;;;;;;;15.04;30.63;100180.09;1671166;86;21191;-59
2021/04/12 08:15:16;;;;;;;22.50;14.50;;;;;;;15.12;30.26;100176.17;1695143;84;21987;-59
2021/04/12 08:18:31;;;;;;;21.27;13.90;;;;;;;15.35;31.29;100175.89;1694663;84;21326;-61
2021/04/12 08:21:28;;;;;;;17.07;11.97;;;;;;;15.50;30.12;100150.23;1671843;84;21598;-61
2021/04/12 08:24:34;;;;;;;17.07;12.30;;;;;;;15.90;28.87;100160.13;1778763;79;24919;-61
2021/04/12 08:27:25;;;;;;;18.20;13.30;;;;;;;15.81;29.02;100150.08;1743977;82;21202;-61
2021/04/12 08:30:33;;;;;;;17.67;12.60;;;;;;;15.87;29.42;100152.45;1711698;83;21156;-61
2021/04/12 08:33:04;;;;;;;;;;;;;;;15.80;28.19;100152.59;1725154;82;21184;-61
2021/04/12 08:35:55;;;;;;;18.12;13.10;;;;;;;15.75;28.50;100141.67;1722726;83;20129;-59
2021/04/12 08:39:14;;;;;;;19.42;12.18;;;;;;;15.75;29.26;100139.75;1659354;85;21206;-60
2021/04/12 08:42:23;;;;;;;16.82;10.70;;;;;;;15.88;28.85;100130.76;1660240;86;21655;-62
2021/04/12 08:45:15;;;;;;;17.20;9.58;;;;;;;16.12;27.56;100127.91;1708333;84;21206;-61
2021/04/12 08:48:18;;;;;;;14.47;9.18;;;;;;;16.16;27.24;100126.20;1716356;82;21644;-62
2021/04/12 08:51:11;;;;;;;12.63;9.00;;;;;;;16.23;26.78;100117.03;1722632;83;21728;-60
2021/04/12 08:53:57;;;;;;;11.68;6.95;;;;;;;16.51;25.62;100108.89;1711694;82;21133;-61
2021/04/12 08:57:03;;;;;;;10.82;7.70;;;;;;;16.55;24.47;100103.84;1721738;82;21613;-61
2021/04/12 08:59:49;;;;;;;12.15;6.45;;;;;;;16.68;23.53;100099.53;1714936;83;21145;-61
2021/04/12 09:03:10;;;;;;;11.45;6.97;;;;;;;16.82;22.18;100103.12;1690705;83;21200;-58
2021/04/12 09:06:09;;;;;;;11.15;7.37;;;;;;;16.86;22.40;100101.39;1690694;85;21638;-62
2021/04/12 09:09:05;;;;;;;9.15;6.40;;;;;;;16.71;21.57;100092.88;1683223;85;21141;-62
2021/04/12 09:12:28;;;;;;;12.07;6.80;;;;;;;16.64;21.75;100085.58;1683437;84;21181;-60
2021/04/12 09:15:41;;;;;;;12.78;7.95;;;;;;;16.57;21.94;100083.79;1683321;85;21196;-60
2021/04/12 09:18:51;;;;;;;13.93;7.35;;;;;;;16.43;23.04;100072.75;1683424;85;21639;-60
2021/04/12 09:22:11;;;;;;;12.50;7.40;;;;;;;16.70;23.48;100072.55;1683211;85;21331;-63
2021/04/12 09:25:19;;;;;;;11.68;7.15;;;;;;;16.84;22.77;100061.00;1683224;85;21217;-61
2021/04/12 09:28:05;;;;;;;11.95;7.15;;;;;;;16.79;24.20;100081.15;1683083;85;21177;-61
2021/04/12 09:30:43;;;;;;;;;;;;;;;16.71;23.93;100075.56;1649763;86;21160;-63
2021/04/12 09:34:04;;;;;;;10.83;8.03;;;;;;;16.70;25.06;100072.55;1632021;87;20182;-63
2021/04/12 09:37:05;;;;;;;16.20;10.63;;;;;;;16.61;25.20;100061.45;1654636;87;21200;-64
2021/04/12 09:40:04;;;;;;;14.10;9.15;;;;;;;16.47;25.98;100063.89;1654603;87;21322;-61
2021/04/12 09:42:47;;;;;;;17.73;10.78;;;;;;;16.29;25.22;100066.95;1682433;84;21222;-60
2021/04/12 09:45:47;;;;;;;17.48;8.88;;;;;;;16.05;26.04;100062.95;1679704;84;21205;-62
2021/04/12 09:48:35;;;;;;;11.25;6.50;;;;;;;15.89;26.36;100061.02;1680285;85;21327;-62
2021/04/12 09:51:46;;;;;;;11.35;6.90;;;;;;;15.62;26.23;100071.06;1682841;85;21307;-61
2021/04/12 09:54:48;;;;;;;12.18;6.70;;;;;;;15.47;26.73;100060.27;1682762;85;21200;-63
2021/04/12 09:57:47;;;;;;;11.68;7.08;;;;;;;15.26;27.44;100056.44;1682830;85;21651;-63
2021/04/12 10:00:55;;;;;;;11.48;6.17;;;;;;;15.09;27.28;100053.34;1682740;85;21142;-62
2021/04/12 10:03:40;;;;;;;9.50;6.10;;;;;;;14.96;27.28;100052.70;1655676;85;21185;-62
2021/04/12 10:06:46;;;;;;;12.98;8.10;;;;;;;14.94;27.81;100053.56;1682694;85;21189;-60
2021/04/12 10:09:37;;;;;;;13.75;8.13;;;;;;;14.95;27.69;100053.25;1641348;85;21643;-61
2021/04/12 10:12:28;;;;;;;11.12;7.37;;;;;;;14.89;28.28;100051.69;1673342;85;21177;-61
2021/04/12 10:15:37;;;;;;;11.48;6.37;;;;;;;14.81;28.37;100041.36;1728309;82;21304;-62
2021/04/12 10:18:40;;;;;;;10.90;5.75;;;;;;;14.73;28.82;100043.94;1690652;83;21209;-61
2021/04/12 10:21:31;;;;;;;9.75;5.92;;;;;;;14.62;28.40;100045.16;1707781;83;21452;-62
2021/04/12 10:24:29;;;;;;;9.33;5.05;;;;;;;14.50;28.08;100035.96;1704892;83;21173;-61
2021/04/12 10:27:33;;;;;;;9.68;6.25;;;;;;;14.44;28.46;100035.22;1678641;84;21614;-62
2021/04/12 10:30:14;;;;;;;8.93;5.20;;;;;;;14.37;28.96;100032.00;1672042;85;21290;-62
2021/04/12 10:32:48;;;;;;;9.10;6.28;;;;;;;14.33;28.76;100032.83;1692443;84;21699;-63
2021/04/12 10:35:30;;;;;;;9.07;6.03;;;;;;;14.27;28.83;100034.81;1815316;77;22749;-62
2021/04/12 10:38:13;;;;;;;9.00;4.90;;;;;;;14.19;29.24;100029.95;1766595;80;21399;-63
2021/04/12 10:40:47;;;;;;;9.08;6.03;;;;;;;14.19;29.17;100035.98;1752688;82;21153;-60
2021/04/12 10:43:42;;;;;;;9.55;5.87;;;;;;;14.14;29.34;100040.94;1746859;82;21202;-60
2021/04/12 10:46:18;;;;;;;8.68;5.83;;;;;;;14.12;29.55;100032.20;1746677;81;21184;-60
2021/04/12 10:49:34;;;;;;;11.37;5.50;;;;;;;14.09;29.51;100027.31;1763847;79;22633;-59
2021/04/12 10:52:29;;;;;;;7.15;4.85;;;;;;;14.00;30.05;100028.20;1670476;85;22092;-60
2021/04/12 10:55:08;;;;;;;10.95;5.40;;;;;;;13.99;28.93;100031.52;1682076;85;21606;-59
2021/04/12 10:58:02;;;;;;;9.87;5.37;;;;;;;14.01;29.16;100026.55;1801685;79;22596;-60
2021/04/12 11:01:03;;;;;;;9.88;5.40;;;;;;;13.99;29.40;100023.85;1790970;80;21862;-61
2021/04/12 11:04:08;;;;;;;12.73;5.90;;;;;;;13.95;29.87;100023.06;1722680;83;21161;-59
2021/04/12 11:07:06;;;;;;;11.20;6.05;;;;;;;13.91;29.69;100025.28;1727712;83;21155;-59
2021/04/12 11:09:56;;;;;;;12.53;6.37;;;;;;;13.84;29.77;100015.22;1779893;79;22677;-59
2021/04/12 11:12:35;;;;;;;10.72;6.15;;;;;;;13.74;29.71;100023.51;1711042;82;21299;-60
2021/04/12 11:15:52;;;;;;;11.65;6.20;;;;;;;13.65;30.15;100018.36;1693565;85;21141;-60
2021/04/12 11:18:31;;;;;;;12.40;6.28;;;;;;;13.66;30.49;100017.27;1693684;85;21234;-59
2021/04/12 11:21:19;;;;;;;10.80;6.33;;;;;;;13.64;30.36;100014.80;1699146;83;21883;-61
2021/04/12 11:24:24;;;;;;;9.35;5.75;;;;;;;13.67;30.66;100016.17;1701628;83;21735;-59
2021/04/12 11:27:38;;;;;;;10.80;6.28;;;;;;;13.72;31.18;100018.31;1650874;87;21188;-61
2021/04/12 11:30:49;;;;;;;12.75;6.00;;;;;;;13.80;31.04;100011.41;1661655;85;21182;-61
2021/04/12 11:33:46;;;;;;;11.03;5.80;;;;;;;13.93;30.94;100018.41;1664252;84;21697;-60
2021/04/12 11:36:43;;;;;;;11.85;5.83;;;;;;;13.98;30.61;100013.45;1675800;85;21604;-60
2021/04/12 11:39:15;;;;;;;13.25;6.70;;;;;;;14.02;31.87;100015.88;1641666;86;21175;-59
2021/04/12 11:42:01;;;;;;;10.53;5.95;;;;;;;13.96;33.06;100012.91;1655780;86;21191;-60
2021/04/12 11:44:53;;;;;;;11.43;6.03;;;;;;;13.94;35.39;100013.75;1666809;84;21304;-59
2021/04/12 11:47:50;;;;;;;11.40;5.72;;;;;;;13.96;35.83;100004.69;1647679;86;21218;-59
2021/04/12 11:50:25;;;;;;;;;;;;;;;13.98;35.66;100002.50;1553910;87;21230;-60
2021/04/12 11:53:29;;;;;;;8.20;4.53;;;;;;;14.03;35.61;100007.91;1644934;85;20278;-59
2021/04/12 11:56:04;;;;;;;7.90;4.67;;;;;;;13.98;36.46;100000.31;1661461;85;21318;-57
2021/04/12 11:58:47;;;;;;;9.57;5.20;;;;;;;13.86;37.68;100003.42;1653040;85;21202;-58
2021/04/12 12:01:57;;;;;;;10.53;5.45;;;;;;;13.79;38.21;100003.75;1655701;85;22373;-59
2021/04/12 12:04:45;;;;;;;9.40;4.60;;;;;;;13.69;38.41;100003.02;1664806;85;21201;-59
2021/04/12 12:08:05;;;;;;;11.53;5.22;;;;;;;13.67;38.45;100003.87;1631654;87;21234;-59
2021/04/12 12:11:08;;;;;;;9.05;5.67;;;;;;;13.62;37.70;100009.36;1670643;85;21163;-60
2021/04/12 12:13:49;;;;;;;8.60;4.85;;;;;;;13.56;37.53;100000.94;1665147;85;21610;-59
2021/04/12 12:16:24;;;;;;;10.25;5.40;;;;;;;13.51;37.57;100000.96;1673578;85;21168;-60
2021/04/12 12:19:16;;;;;;;10.10;5.58;;;;;;;13.54;37.53;100001.75;1656928;85;21339;-59
2021/04/12 12:22:23;;;;;;;9.10;5.58;;;;;;;13.56;37.33;100000.39;1625182;85;21169;-59
2021/04/12 12:25:08;;;;;;;10.48;5.65;;;;;;;13.60;37.55;99999.27;1650031;85;21180;-60
2021/04/12 12:27:41;;;;;;;12.03;5.70;;;;;;;13.59;37.06;99994.89;1664539;85;21339;-61
2021/04/12 12:30:19;;;;;;;14.83;6.28;;;;;;;13.61;37.99;99992.13;1666057;85;21597;-59
2021/04/12 12:33:03;;;;;;;11.57;6.42;;;;;;;13.64;38.98;99993.50;1664470;85;21231;-60
2021/04/12 12:36:10;;;;;;;10.08;6.33;;;;;;;13.53;38.59;99990.57;1680335;85;21579;-60
2021/04/12 12:39:16;;;;;;;12.47;6.50;;;;;;;13.45;39.18;99996.09;1670865;85;21618;-61
2021/04/12 12:41:46;;;;;;;11.63;6.60;;;;;;;13.37;39.51;99999.42;1671041;84;21376;-61
2021/04/12 12:46:13;;;;;;;11.20;6.90;;;;;;;13.36;41.19;99995.86;1790104;79;23377;-58
2021/04/12 12:48:49;;;;;;;11.90;7.22;;;;;;;13.25;42.26;99984.72;1755286;81;21290;-58
2021/04/12 12:51:26;;;;;;;14.78;6.87;;;;;;;13.16;41.86;99993.27;1755206;81;21188;-59
2021/04/12 12:54:03;;;;;;;11.63;6.45;;;;;;;13.09;41.93;99981.83;1727406;81;21721;-58
2021/04/12 12:56:35;;;;;;;11.28;6.08;;;;;;;13.03;45.16;99987.58;1716203;83;21145;-57
2021/04/12 12:59:11;;;;;;;11.65;6.65;;;;;;;12.93;45.86;99989.25;1707038;83;21148;-58
2021/04/12 13:01:40;;;;;;;12.68;7.65;;;;;;;12.77;47.56;99985.51;1717598;83;21937;-59
2021/04/12 13:04:11;;;;;;;14.65;7.60;;;;;;;12.67;48.91;99982.28;1687633;84;21613;-59
2021/04/12 13:06:42;;;;;;;14.98;9.08;;;;;;;12.58;49.27;99985.30;1721231;83;21693;-60
2021/04/12 13:09:31;;;;;;;14.05;8.13;;;;;;;12.52;50.32;99989.70;1720984;83;21640;-59
2021/04/12 13:12:14;;;;;;;12.43;7.50;;;;;;;12.49;50.10;99982.89;1721309;83;21180;-59
2021/04/12 13:14:50;;;;;;;13.25;7.37;;;;;;;12.39;50.35;99983.75;1694268;83;21312;-58
2021/04/12 13:17:29;;;;;;;11.80;7.20;;;;;;;12.33;50.71;99981.28;1697276;84;21338;-58
2021/04/12 13:20:10;;;;;;;13.70;7.70;;;;;;;12.24;51.40;99979.69;1694719;83;21180;-58
2021/04/12 13:22:43;;;;;;;11.60;7.45;;;;;;;12.05;52.56;99981.89;1694724;84;21968;-58
2021/04/12 13:25:19;;;;;;;12.58;8.10;;;;;;;11.96;53.14;99979.74;1697483;84;21604;-58
2021/04/12 13:27:59;;;;;;;15.88;9.15;;;;;;;11.90;53.63;99980.81;1692843;84;21621;-58